Time;durP1;ratioP1;P1;durP2;ratioP2;P2;SDS_P1;SDS_P2;PMS_P1;PMS_P2;Temp;Humidity;BMP_temperature;BMP_pressure;BME280_temperature;BME280_humidity;BME280_pressure;Samples;Min_cycle;Max_cycle;Signal;HPM_P1;HPM_P2
2022/01/30 00:00:04;;;;;;;21.40;11.38;;;;;;;-0.51;70.53;95350.44;4973191;28;20213;-85
2022/01/30 00:02:31;;;;;;;22.00;12.18;;;;;;;-0.49;70.52;95364.94;4973620;28;20639;-86
2022/01/30 00:04:58;;;;;;;18.83;12.93;;;;;;;-0.58;70.84;95357.50;4973046;28;20206;-84
2022/01/30 00:07:26;;;;;;;20.50;12.70;;;;;;;-0.59;70.94;95358.41;4973168;28;20209;-84
2022/01/30 00:09:53;;;;;;;22.75;13.15;;;;;;;-0.67;71.56;95358.69;4973074;28;20206;-84
2022/01/30 00:12:28;;;;;;;23.08;14.15;;;;;;;-0.78;71.50;95353.06;4972949;28;20205;-84
2022/01/30 00:14:56;;;;;;;23.38;12.57;;;;;;;-0.93;71.41;95358.69;4943420;28;20656;-85
2022/01/30 00:17:29;;;;;;;19.20;11.75;;;;;;;-0.95;72.04;95352.75;4972589;28;20225;-84
2022/01/30 00:20:00;;;;;;;19.95;11.88;;;;;;;-1.00;71.78;95341.78;4991871;28;20222;-85
2022/01/30 00:22:41;;;;;;;18.73;11.98;;;;;;;-0.94;71.16;95352.69;5034089;28;20235;-85
2022/01/30 00:25:14;;;;;;;16.92;12.05;;;;;;;-0.95;71.07;95345.03;4988567;28;20203;-85
2022/01/30 00:27:54;;;;;;;20.52;11.40;;;;;;;-1.05;70.68;95339.34;5033939;28;20195;-85
2022/01/30 00:30:21;;;;;;;23.80;12.35;;;;;;;-1.07;71.19;95330.00;5034141;28;20242;-85
2022/01/30 00:32:48;;;;;;;19.13;10.93;;;;;;;-1.09;71.74;95324.06;5033515;28;20236;-85
2022/01/30 00:35:15;;;;;;;15.05;9.48;;;;;;;-1.10;71.14;95325.78;5033560;28;20282;-84
2022/01/30 00:37:48;;;;;;;14.85;10.45;;;;;;;-1.18;71.30;95320.03;5033567;28;20223;-84
2022/01/30 00:40:15;;;;;;;19.60;10.02;;;;;;;-1.24;72.42;95312.50;5033741;28;20269;-83
2022/01/30 00:42:42;;;;;;;21.40;11.40;;;;;;;-1.28;71.81;95316.91;5035298;28;20297;-84
2022/01/30 00:45:10;;;;;;;14.85;10.70;;;;;;;-1.32;72.46;95317.06;4983518;28;20282;-86
2022/01/30 00:47:37;;;;;;;17.23;11.13;;;;;;;-1.30;71.75;95308.41;5033597;28;20651;-84
2022/01/30 00:50:04;;;;;;;18.08;9.77;;;;;;;-1.34;72.32;95305.97;5033359;28;20203;-85
2022/01/30 00:52:31;;;;;;;17.05;10.55;;;;;;;-1.41;73.02;95294.19;5033611;28;20552;-84
2022/01/30 00:54:59;;;;;;;23.17;10.93;;;;;;;-1.45;72.98;95298.56;5033142;28;20655;-83
2022/01/30 00:57:26;;;;;;;17.23;10.68;;;;;;;-1.45;72.74;95298.56;5033351;28;20228;-83
2022/01/30 00:59:54;;;;;;;14.35;10.27;;;;;;;-1.37;72.83;95300.94;5033286;28;20206;-84
2022/01/30 01:02:21;;;;;;;14.07;9.80;;;;;;;-1.38;71.93;95305.25;5035232;28;20573;-84
2022/01/30 01:04:48;;;;;;;23.90;11.65;;;;;;;-1.44;71.65;95292.56;5036509;28;20643;-83
2022/01/30 01:07:19;;;;;;;13.93;9.32;;;;;;;-1.46;71.76;95283.19;5036572;28;20209;-85
2022/01/30 01:09:55;;;;;;;13.20;9.20;;;;;;;-1.47;71.69;95277.19;5036622;28;20203;-85
2022/01/30 01:23:25;;;;;;;18.58;10.63;;;;;;;-1.43;71.43;95260.81;5037189;28;20202;-83
2022/01/30 01:25:53;;;;;;;14.90;9.02;;;;;;;-1.46;71.83;95262.59;5036635;28;20199;-83
2022/01/30 01:28:21;;;;;;;9.60;8.35;;;;;;;-1.45;70.90;95264.28;5002041;28;20199;-85
2022/01/30 01:30:48;;;;;;;21.33;9.05;;;;;;;-1.46;71.13;95258.28;5033316;28;20200;-84
2022/01/30 01:33:15;;;;;;;14.75;9.10;;;;;;;-1.42;71.16;95241.06;5033155;28;20203;-86
2022/01/30 01:35:42;;;;;;;17.77;10.38;;;;;;;-1.40;71.76;95240.09;4982409;28;20203;-83
2022/01/30 01:38:10;;;;;;;23.15;10.40;;;;;;;-1.40;71.91;95237.53;5032935;28;20600;-85
2022/01/30 01:40:37;;;;;;;18.83;11.60;;;;;;;-1.37;72.08;95236.59;5033036;28;20210;-84
2022/01/30 01:43:04;;;;;;;17.15;11.38;;;;;;;-1.45;71.25;95230.81;4998141;28;20674;-84
2022/01/30 01:45:35;;;;;;;19.23;10.45;;;;;;;-1.45;71.05;95229.09;5033494;28;20297;-84
2022/01/30 01:48:08;;;;;;;16.90;9.63;;;;;;;-1.56;70.81;95229.47;5032998;28;20213;-84
2022/01/30 01:50:39;;;;;;;15.93;10.85;;;;;;;-1.57;71.96;95219.22;5032994;28;20203;-84
2022/01/30 01:53:07;;;;;;;12.05;9.90;;;;;;;-1.61;71.36;95231.34;5032981;28;20682;-84
2022/01/30 01:55:34;;;;;;;16.25;10.63;;;;;;;-1.62;71.03;95215.97;5032409;28;20290;-84
2022/01/30 01:58:01;;;;;;;20.60;11.68;;;;;;;-1.60;71.65;95220.16;5032652;28;20223;-84
2022/01/30 02:00:28;;;;;;;27.55;12.73;;;;;;;-1.58;70.81;95217.53;5013723;28;20202;-83
2022/01/30 02:02:57;;;;;;;19.30;10.60;;;;;;;-1.61;71.50;95215.06;5032376;28;20651;-82
2022/01/30 02:05:26;;;;;;;17.17;10.70;;;;;;;-1.60;72.23;95211.59;5032101;28;20226;-84
2022/01/30 02:10:48;;;;;;;15.43;8.68;;;;;;;-1.70;71.75;95184.50;5032148;28;20195;-84
2022/01/30 02:13:43;;;;;;;13.20;8.20;;;;;;;-1.64;71.51;95190.28;5032161;28;20215;-84
2022/01/30 02:24:39;;;;;;;10.35;8.43;;;;;;;-1.68;70.22;95191.28;5032179;28;20326;-84
2022/01/30 02:27:06;;;;;;;11.85;9.18;;;;;;;-1.73;71.07;95190.59;4997407;28;20202;-83
2022/01/30 02:29:33;;;;;;;14.82;10.45;;;;;;;-1.74;71.25;95194.03;5032255;28;20662;-84
2022/01/30 02:32:01;;;;;;;14.13;9.18;;;;;;;-1.78;70.96;95189.03;5032103;28;20242;-84
2022/01/30 02:34:29;;;;;;;15.43;8.30;;;;;;;-1.74;70.27;95188.88;5031995;28;20199;-85
2022/01/30 02:36:57;;;;;;;11.23;7.45;;;;;;;-1.73;70.46;95184.59;5031749;28;20223;-85
2022/01/30 02:39:25;;;;;;;14.95;8.27;;;;;;;-1.89;70.80;95174.81;5031655;28;20232;-85
2022/01/30 02:41:53;;;;;;;11.60;8.98;;;;;;;-1.96;70.25;95154.47;5032356;28;20626;-84
2022/01/30 02:44:24;;;;;;;12.05;7.82;;;;;;;-1.96;71.72;95152.75;5031744;28;20215;-84
2022/01/30 02:46:54;;;;;;;10.00;7.60;;;;;;;-2.00;71.50;95151.16;5031903;28;20199;-83
2022/01/30 02:49:44;;;;;;;17.50;8.88;;;;;;;-2.11;71.12;95145.50;5034540;28;20685;-84
2022/01/30 02:52:12;;;;;;;14.50;9.32;;;;;;;-2.15;71.45;95149.06;5035618;28;20207;-84
2022/01/30 02:54:40;;;;;;;19.73;8.38;;;;;;;-2.16;71.53;95141.41;5035705;28;20196;-84
2022/01/30 02:57:09;;;;;;;15.07;8.32;;;;;;;-2.11;70.97;95148.09;5035512;28;20203;-85
2022/01/30 02:59:37;;;;;;;12.15;7.82;;;;;;;-2.23;70.91;95145.91;5035130;28;20234;-86
2022/01/30 03:02:05;;;;;;;15.60;7.80;;;;;;;-2.24;71.67;95154.50;4984029;28;20204;-85
2022/01/30 03:04:32;;;;;;;17.50;8.98;;;;;;;-2.22;71.63;95138.16;5035330;28;20656;-84
2022/01/30 03:06:58;;;;;;;13.48;9.15;;;;;;;-2.13;71.09;95139.59;5016717;28;20195;-83
2022/01/30 03:09:25;;;;;;;13.75;8.63;;;;;;;-2.09;71.49;95128.31;5035473;28;20685;-85
2022/01/30 03:11:52;;;;;;;10.98;7.90;;;;;;;-2.06;71.54;95133.34;5034996;28;20207;-84
2022/01/30 03:14:20;;;;;;;11.05;7.43;;;;;;;-2.04;71.85;95139.28;5000460;28;20203;-84
2022/01/30 03:16:47;;;;;;;12.27;7.18;;;;;;;-1.99;71.17;95139.16;5035138;28;20210;-83
2022/01/30 03:19:14;;;;;;;13.77;7.47;;;;;;;-1.97;71.45;95134.81;5034864;28;20230;-82
2022/01/30 03:21:41;;;;;;;12.15;6.10;;;;;;;-1.98;70.81;95125.41;5034790;28;20206;-84
2022/01/30 03:24:08;;;;;;;11.32;7.80;;;;;;;-1.99;70.85;95137.44;5035025;28;20211;-84
2022/01/30 03:26:38;;;;;;;9.77;8.40;;;;;;;-1.99;71.61;95127.16;5034353;28;20196;-84
2022/01/30 03:29:06;;;;;;;11.95;8.20;;;;;;;-1.98;70.66;95139.09;5035048;28;20207;-83
2022/01/30 03:31:37;;;;;;;19.00;7.95;;;;;;;-2.00;70.51;95130.59;5034586;28;20238;-85
2022/01/30 03:34:07;;;;;;;15.05;8.52;;;;;;;-2.02;70.32;95136.69;5000627;28;20199;-80
2022/01/30 03:36:34;;;;;;;17.08;9.55;;;;;;;-1.98;69.91;95136.53;5015979;28;20192;-84
2022/01/30 03:39:00;;;;;;;17.67;8.98;;;;;;;-1.96;70.34;95132.19;5034404;28;20776;-85
2022/01/30 03:41:27;;;;;;;14.45;8.68;;;;;;;-1.95;69.69;95139.00;5034281;28;20219;-81
2022/01/30 03:43:55;;;;;;;12.80;8.10;;;;;;;-1.97;69.69;95138.22;5034571;28;20215;-84
2022/01/30 03:46:23;;;;;;;18.80;10.38;;;;;;;-2.01;69.73;95139.22;5015931;28;20198;-84
2022/01/30 03:48:51;;;;;;;10.30;7.70;;;;;;;-2.02;70.07;95150.38;5034236;28;20208;-86
2022/01/30 03:51:18;;;;;;;12.35;8.05;;;;;;;-2.07;71.06;95141.94;5034656;28;20560;-84
2022/01/30 03:53:45;;;;;;;11.00;8.25;;;;;;;-2.06;70.80;95141.06;5034624;28;20651;-82
2022/01/30 03:56:12;;;;;;;11.15;8.00;;;;;;;-2.09;71.05;95138.59;5034423;28;20572;-84
2022/01/30 03:58:39;;;;;;;14.75;9.65;;;;;;;-2.10;71.04;95139.47;5034118;28;20230;-84
2022/01/30 04:01:06;;;;;;;13.80;8.25;;;;;;;-2.11;70.12;95136.97;5034001;28;20214;-84
2022/01/30 04:03:33;;;;;;;19.92;9.13;;;;;;;-2.12;70.00;95130.13;5034099;28;20205;-84
2022/01/30 04:06:02;;;;;;;12.90;7.80;;;;;;;-2.12;71.21;95133.56;5034124;28;20218;-84
2022/01/30 04:08:29;;;;;;;11.45;7.57;;;;;;;-2.13;70.64;95126.72;4999286;28;20203;-86
2022/01/30 04:10:56;;;;;;;14.38;7.93;;;;;;;-2.15;71.57;95128.50;4983074;28;20214;-84
2022/01/30 04:13:23;;;;;;;15.32;7.28;;;;;;;-2.16;71.41;95120.84;5033757;28;20199;-84
2022/01/30 04:15:50;;;;;;;10.85;7.50;;;;;;;-2.19;71.07;95120.06;5034076;28;20200;-84
2022/01/30 04:18:18;;;;;;;15.40;8.02;;;;;;;-2.22;71.74;95112.44;5033414;28;20223;-83
2022/01/30 04:20:45;;;;;;;14.10;8.05;;;;;;;-2.23;71.62;95122.78;5035002;28;20203;-86
2022/01/30 04:23:13;;;;;;;17.80;8.52;;;;;;;-2.21;71.90;95114.13;5035644;28;20677;-84
2022/01/30 04:25:40;;;;;;;10.65;7.55;;;;;;;-2.21;71.53;95101.28;5034858;28;20684;-84
2022/01/30 04:28:08;;;;;;;20.15;8.02;;;;;;;-2.23;71.85;95089.38;5035473;28;20300;-83
2022/01/30 04:30:36;;;;;;;12.55;7.75;;;;;;;-2.22;71.37;95081.59;5035650;28;20207;-84
2022/01/30 04:33:03;;;;;;;13.68;7.03;;;;;;;-2.26;71.14;95068.91;5034632;28;20588;-83
2022/01/30 04:35:30;;;;;;;12.63;6.85;;;;;;;-2.36;71.08;95063.22;5035082;28;20242;-85
2022/01/30 04:38:11;;;;;;;11.05;7.43;;;;;;;-2.39;71.80;95052.19;5034704;28;20196;-84
2022/01/30 04:41:04;;;;;;;11.25;5.93;;;;;;;-2.39;72.00;95042.75;5034834;28;20196;-83
2022/01/30 04:52:18;;;;;;;10.80;6.90;;;;;;;-2.22;72.41;95030.22;4973429;28;20359;-80
2022/01/30 05:03:23;;;;;;;9.65;6.15;;;;;;;-1.91;71.13;95053.16;4858114;29;20206;-78
2022/01/30 05:06:00;;;;;;;12.88;7.80;;;;;;;-1.89;70.52;95069.38;4859631;29;21009;-80
2022/01/30 05:08:27;;;;;;;16.63;8.82;;;;;;;-1.87;71.61;95074.47;4831783;29;20302;-79
2022/01/30 05:10:54;;;;;;;20.70;12.18;;;;;;;-1.90;70.61;95072.00;4859163;29;20587;-79
2022/01/30 05:13:26;;;;;;;36.25;14.35;;;;;;;-1.93;71.12;95065.22;4858318;29;20213;-79
2022/01/30 05:15:54;;;;;;;29.20;12.05;;;;;;;-1.99;71.37;95046.59;4859088;29;20205;-80
2022/01/30 05:18:23;;;;;;;11.55;8.20;;;;;;;-2.09;71.60;95022.06;4859671;29;20405;-79
2022/01/30 05:20:50;;;;;;;12.38;7.50;;;;;;;-2.31;72.99;95009.13;4859263;29;20209;-79
2022/01/30 05:23:18;;;;;;;16.15;9.63;;;;;;;-2.45;72.80;94996.72;4884014;29;20662;-79
2022/01/30 05:25:46;;;;;;;11.10;8.05;;;;;;;-0.89;98.64;94984.22;4915410;29;20218;-78
2022/01/30 05:28:14;;;;;;;13.05;7.40;;;;;;;-1.27;81.12;94985.69;4915331;29;20203;-78
2022/01/30 05:30:44;;;;;;;16.15;8.73;;;;;;;-1.44;74.90;94977.78;4915285;29;20218;-78
2022/01/30 05:33:12;;;;;;;15.05;8.30;;;;;;;-1.59;73.18;94961.16;4868726;29;20214;-78
2022/01/30 05:35:39;;;;;;;16.73;8.93;;;;;;;-1.66;72.73;94978.56;4951984;29;20202;-79
2022/01/30 05:38:06;;;;;;;13.30;10.30;;;;;;;-1.76;73.07;94977.19;5019077;28;20206;-79
2022/01/30 05:40:36;;;;;;;14.35;7.30;;;;;;;-1.83;73.81;94977.47;5033262;28;20223;-79
2022/01/30 05:43:03;;;;;;;12.63;8.95;;;;;;;-1.84;73.95;94988.66;5033258;28;20199;-78
2022/01/30 05:45:34;;;;;;;17.92;9.15;;;;;;;-1.83;74.07;95005.75;5033639;28;20202;-79
2022/01/30 05:48:08;;;;;;;15.70;10.00;;;;;;;-1.85;73.89;95000.66;5033547;28;20601;-78
2022/01/30 05:50:36;;;;;;;28.75;10.32;;;;;;;-1.92;74.41;95025.75;5033516;28;20191;-79
2022/01/30 05:53:04;;;;;;;13.50;8.30;;;;;;;-2.02;74.33;95041.56;5032832;28;20661;-79
2022/01/30 05:55:31;;;;;;;15.80;8.32;;;;;;;-2.14;75.16;95052.25;5019404;28;20682;-79
2022/01/30 05:57:58;;;;;;;14.43;9.98;;;;;;;0.33;100.00;95017.06;5013505;28;20200;-79
2022/01/30 06:00:26;;;;;;;12.38;7.65;;;;;;;-0.53;95.46;95017.19;5014097;28;20278;-78
2022/01/30 06:02:53;;;;;;;17.63;8.23;;;;;;;-0.77;81.32;95030.13;5014018;28;20208;-79
2022/01/30 06:05:22;;;;;;;18.85;11.38;;;;;;;3.18;99.34;95003.13;5013740;28;20677;-79
2022/01/30 06:07:52;;;;;;;13.27;8.10;;;;;;;1.50;86.02;95014.31;5013668;28;20316;-79
2022/01/30 06:10:19;;;;;;;12.75;9.07;;;;;;;0.87;75.79;95004.31;5013144;28;20216;-78
2022/01/30 06:12:46;;;;;;;15.50;9.93;;;;;;;0.41;70.92;95000.34;5013139;28;20202;-79
2022/01/30 06:15:14;;;;;;;16.83;10.18;;;;;;;0.08;69.96;95004.38;5013058;28;20204;-78
2022/01/30 06:17:42;;;;;;;21.02;13.70;;;;;;;-0.23;70.91;94999.66;5019655;28;20250;-79
2022/01/30 06:20:10;;;;;;;30.52;16.10;;;;;;;-0.45;70.60;94984.22;5032867;28;20228;-80
2022/01/30 06:22:39;;;;;;;33.03;16.48;;;;;;;-0.52;71.22;94978.47;5027963;28;20196;-81
2022/01/30 06:25:07;;;;;;;35.65;22.25;;;;;;;-0.55;71.51;94970.03;5016765;28;20204;-80
2022/01/30 06:27:34;;;;;;;21.35;13.80;;;;;;;-0.71;72.80;94957.75;4982248;28;20200;-79
2022/01/30 06:30:00;;;;;;;15.80;10.07;;;;;;;-0.83;73.11;94941.97;5016696;28;20670;-79
2022/01/30 06:32:28;;;;;;;12.68;8.70;;;;;;;-0.89;72.91;94968.78;5016498;28;20586;-77
2022/01/30 06:34:55;;;;;;;9.30;7.07;;;;;;;-0.91;73.61;94959.44;5016558;28;20219;-78
2022/01/30 06:37:22;;;;;;;13.82;8.07;;;;;;;-0.97;74.03;94965.66;5017347;28;20914;-79
2022/01/30 06:39:50;;;;;;;13.68;6.47;;;;;;;-1.12;73.82;94961.13;5017220;28;20220;-80
2022/01/30 06:42:17;;;;;;;12.27;6.55;;;;;;;-1.17;74.64;94950.13;5017086;28;20219;-82
2022/01/30 06:44:45;;;;;;;7.90;6.53;;;;;;;-1.08;74.00;94937.78;5017017;28;20185;-80
2022/01/30 06:47:12;;;;;;;19.90;10.27;;;;;;;-1.29;75.23;94943.72;5016582;28;20211;-78
2022/01/30 06:49:39;;;;;;;21.90;12.77;;;;;;;-1.18;75.43;94961.34;5016590;28;20204;-78
2022/01/30 06:52:09;;;;;;;18.98;11.77;;;;;;;-1.39;76.73;94974.13;5016781;28;20204;-79
2022/01/30 06:54:38;;;;;;;49.17;30.80;;;;;;;-1.38;77.73;94993.00;5020325;28;20214;-79
2022/01/30 06:57:07;;;;;;;56.45;31.45;;;;;;;-1.44;78.11;94995.78;5036600;28;20265;-84
2022/01/30 06:59:35;;;;;;;61.83;33.35;;;;;;;-1.43;77.96;94990.59;5036331;28;20233;-79
2022/01/30 07:02:02;;;;;;;65.78;34.35;;;;;;;-1.51;78.40;94971.16;5036585;28;20223;-79
2022/01/30 07:04:29;;;;;;;52.80;30.98;;;;;;;-1.58;78.79;94962.84;5036519;28;20199;-79
2022/01/30 07:06:57;;;;;;;62.15;29.80;;;;;;;-1.53;79.53;94958.34;5036198;28;20211;-79
2022/01/30 07:09:24;;;;;;;47.58;23.67;;;;;;;-1.36;79.22;94958.56;5035720;28;20203;-78
2022/01/30 07:11:51;;;;;;;45.90;23.48;;;;;;;-1.21;78.77;94956.31;5034450;28;20203;-79
2022/01/30 07:14:19;;;;;;;48.80;24.55;;;;;;;-1.13;79.24;94949.16;5035082;28;20203;-79
2022/01/30 07:16:46;;;;;;;42.20;22.75;;;;;;;-1.04;79.74;94951.34;5036211;28;20207;-80
2022/01/30 07:19:13;;;;;;;38.17;21.15;;;;;;;-1.08;79.83;94955.78;5035927;28;20235;-79
2022/01/30 07:21:40;;;;;;;31.92;19.95;;;;;;;-1.02;79.75;94940.09;5051297;28;20202;-80
2022/01/30 07:24:07;;;;;;;43.30;23.90;;;;;;;-0.97;80.05;94943.31;5055782;28;21092;-79
2022/01/30 07:26:34;;;;;;;50.50;24.88;;;;;;;-0.82;80.26;94954.78;5056061;28;20203;-78
2022/01/30 07:29:03;;;;;;;59.92;29.95;;;;;;;-0.78;79.89;94963.22;5055535;28;20206;-79
2022/01/30 07:31:32;;;;;;;42.92;23.17;;;;;;;-0.73;80.40;94966.44;5055737;28;20292;-80
2022/01/30 07:33:59;;;;;;;48.88;25.45;;;;;;;-0.77;80.25;94960.56;5055505;28;20202;-80
2022/01/30 07:36:26;;;;;;;42.30;25.25;;;;;;;-0.62;81.08;94969.41;5054886;28;20552;-80
2022/01/30 07:38:53;;;;;;;41.38;21.65;;;;;;;-0.42;81.11;94960.88;5055505;28;20191;-79
2022/01/30 07:41:20;;;;;;;36.85;20.42;;;;;;;-0.45;79.82;94964.44;5047628;28;20576;-79
2022/01/30 07:43:47;;;;;;;29.55;15.25;;;;;;;-0.63;79.75;94966.00;5035485;28;20208;-80
2022/01/30 07:46:14;;;;;;;29.52;16.70;;;;;;;-0.56;80.21;94963.19;5036060;28;20192;-80
2022/01/30 07:48:42;;;;;;;26.40;13.25;;;;;;;-0.39;80.12;94976.22;5035437;28;20203;-80
2022/01/30 07:51:09;;;;;;;25.45;13.10;;;;;;;-0.25;79.56;94978.25;5035208;28;20212;-79
2022/01/30 07:53:36;;;;;;;20.63;11.75;;;;;;;-0.34;78.15;94976.88;5035520;28;20188;-79
2022/01/30 07:56:04;;;;;;;14.43;8.85;;;;;;;-0.24;77.33;94988.50;5035936;28;20208;-79
2022/01/30 07:58:30;;;;;;;20.05;13.95;;;;;;;-0.23;77.61;94974.69;5035320;28;20185;-80
2022/01/30 08:00:57;;;;;;;21.17;10.52;;;;;;;-0.19;77.19;94962.53;5035265;28;20675;-79
2022/01/30 08:03:24;;;;;;;21.45;13.43;;;;;;;-0.10;77.30;94965.53;5035018;28;20180;-79
2022/01/30 08:09:14;;;;;;;16.92;10.20;;;;;;;0.32;75.64;94945.72;5034218;28;20231;-80
2022/01/30 08:11:41;;;;;;;22.48;10.80;;;;;;;0.43;74.57;94949.47;4983775;28;20219;-77
2022/01/30 08:14:07;;;;;;;20.27;10.90;;;;;;;0.57;74.11;94941.09;5035126;28;20197;-78
2022/01/30 08:16:34;;;;;;;16.50;8.80;;;;;;;0.59;72.37;94919.50;5035474;28;20201;-78
2022/01/30 08:19:01;;;;;;;14.65;10.18;;;;;;;0.47;73.10;94908.88;5034685;28;20296;-80
2022/01/30 08:21:28;;;;;;;26.00;12.38;;;;;;;0.86;73.42;94906.19;5035033;28;20295;-79
2022/01/30 08:23:55;;;;;;;25.00;13.52;;;;;;;1.03;70.97;94895.91;5035139;28;20205;-79
2022/01/30 08:26:23;;;;;;;16.27;9.40;;;;;;;1.32;68.98;94927.28;5034581;28;20213;-79
2022/01/30 08:28:50;;;;;;;16.10;9.77;;;;;;;1.40;66.43;94918.22;5035130;28;20200;-79
2022/01/30 08:31:17;;;;;;;16.08;10.45;;;;;;;1.44;67.08;94927.50;5034632;28;20234;-81
2022/01/30 08:33:44;;;;;;;17.08;11.27;;;;;;;1.50;67.02;94910.88;5034657;28;20644;-81
2022/01/30 08:36:11;;;;;;;17.88;10.80;;;;;;;1.18;67.26;94918.44;5034627;28;20688;-80
2022/01/30 08:38:38;;;;;;;18.25;12.50;;;;;;;1.30;67.68;94929.09;5035330;28;20612;-79
2022/01/30 08:41:05;;;;;;;18.92;12.55;;;;;;;1.35;67.01;94932.28;5031164;28;20233;-79
2022/01/30 08:43:36;;;;;;;23.98;11.82;;;;;;;1.17;67.09;94939.19;5014406;28;20670;-78
2022/01/30 08:46:03;;;;;;;19.55;13.43;;;;;;;0.97;68.39;94942.72;5015244;28;20704;-79
2022/01/30 08:48:32;;;;;;;24.67;12.55;;;;;;;0.99;69.05;94937.47;5015462;28;20201;-80
2022/01/30 08:51:00;;;;;;;17.90;11.52;;;;;;;1.01;69.20;94938.22;5014732;28;20198;-78
2022/01/30 08:53:27;;;;;;;22.25;13.63;;;;;;;1.08;69.28;94948.19;5017060;28;20301;-79
2022/01/30 08:55:54;;;;;;;23.58;10.02;;;;;;;1.11;69.63;94948.06;5014507;28;20212;-79
2022/01/30 08:58:21;;;;;;;17.05;9.77;;;;;;;1.34;69.65;94951.28;5014427;28;20650;-80
2022/01/30 09:00:49;;;;;;;16.77;9.32;;;;;;;1.29;68.78;94948.09;4980515;28;20225;-80
2022/01/30 09:03:16;;;;;;;18.05;10.43;;;;;;;1.31;68.54;94946.28;5018262;28;20202;-80
2022/01/30 09:05:43;;;;;;;14.23;8.45;;;;;;;1.33;66.68;94945.28;5015163;28;20375;-79
2022/01/30 09:08:10;;;;;;;15.43;8.38;;;;;;;1.43;66.41;94956.00;5013930;28;20298;-80
2022/01/30 09:10:39;;;;;;;20.95;9.65;;;;;;;1.51;66.05;94953.91;5014263;28;20672;-80
2022/01/30 09:13:07;;;;;;;19.98;9.48;;;;;;;1.28;66.65;94938.69;5014236;28;20659;-79
2022/01/30 09:15:39;;;;;;;18.88;10.85;;;;;;;0.96;67.99;94946.19;5014569;28;20228;-79
2022/01/30 09:18:09;;;;;;;14.43;10.90;;;;;;;1.05;68.69;94943.19;5017204;28;20185;-80
2022/01/30 09:20:37;;;;;;;20.00;8.52;;;;;;;1.19;67.44;94943.38;5015292;28;20313;-80
2022/01/30 09:23:04;;;;;;;20.73;11.40;;;;;;;1.23;67.91;94947.50;4995148;28;20671;-80
2022/01/30 09:25:31;;;;;;;17.25;9.90;;;;;;;1.22;67.68;94947.56;5013426;28;20454;-80
2022/01/30 09:27:58;;;;;;;12.55;8.73;;;;;;;1.03;67.57;94945.00;5013879;28;20207;-81
2022/01/30 09:30:25;;;;;;;17.50;11.30;;;;;;;1.19;68.04;94955.47;5014766;28;20290;-80
2022/01/30 09:32:52;;;;;;;19.45;13.20;;;;;;;1.41;67.93;94942.31;5013293;28;20240;-80
2022/01/30 09:35:20;;;;;;;20.17;13.23;;;;;;;1.31;68.42;94910.09;5033550;28;20660;-80
2022/01/30 09:37:47;;;;;;;19.70;12.63;;;;;;;1.56;67.05;94910.56;5052805;28;20659;-80
2022/01/30 09:40:17;;;;;;;21.93;11.30;;;;;;;1.83;65.65;94909.19;5051885;28;20232;-80
2022/01/30 09:42:45;;;;;;;19.45;11.48;;;;;;;1.73;64.99;94894.19;5053076;28;20441;-80
2022/01/30 09:45:13;;;;;;;17.67;10.82;;;;;;;1.87;64.92;94881.41;5053203;28;20263;-80
2022/01/30 09:47:40;;;;;;;25.60;14.97;;;;;;;1.91;64.51;94871.75;5053421;28;20215;-78
2022/01/30 09:50:09;;;;;;;14.20;8.07;;;;;;;2.05;62.52;94864.13;5052507;28;20455;-80
2022/01/30 09:52:38;;;;;;;14.00;9.13;;;;;;;2.22;63.08;94851.09;4985729;28;20927;-80
2022/01/30 09:55:06;;;;;;;18.85;10.13;;;;;;;2.38;63.12;94839.03;5001322;28;20485;-81
2022/01/30 09:57:33;;;;;;;16.13;10.27;;;;;;;2.61;62.41;94834.38;5053459;28;20236;-80
2022/01/30 10:00:00;;;;;;;19.23;9.50;;;;;;;2.78;61.62;94823.88;5056255;28;20485;-80
2022/01/30 10:02:27;;;;;;;27.97;13.33;;;;;;;2.96;60.87;94819.44;5056223;28;20448;-80
2022/01/30 10:04:54;;;;;;;19.70;11.30;;;;;;;3.10;60.84;94812.53;5055461;28;20466;-81
2022/01/30 10:07:26;;;;;;;24.83;13.97;;;;;;;3.05;60.28;94819.75;5055474;28;20451;-80
2022/01/30 10:10:08;;;;;;;14.17;9.93;;;;;;;2.98;60.69;94821.03;5022414;28;20451;-81
2022/01/30 10:12:35;;;;;;;24.23;10.80;;;;;;;2.96;60.98;94812.50;5055944;28;20449;-80
2022/01/30 10:15:05;;;;;;;17.13;11.20;;;;;;;2.88;61.73;94793.94;5055474;28;21064;-80
2022/01/30 10:17:35;;;;;;;14.70;9.93;;;;;;;2.84;61.49;94795.03;5005526;28;20441;-80
2022/01/30 10:20:09;;;;;;;16.00;10.73;;;;;;;3.01;61.24;94794.94;5056830;28;20488;-79
2022/01/30 10:22:50;;;;;;;13.57;9.00;;;;;;;3.03;61.04;94803.44;5056615;28;20437;-80
2022/01/30 10:25:26;;;;;;;20.30;9.57;;;;;;;3.06;60.61;94800.69;5056470;28;20429;-77
2022/01/30 10:28:07;;;;;;;17.10;10.00;;;;;;;3.27;60.21;94810.75;5057246;28;20440;-78
2022/01/30 10:30:41;;;;;;;25.63;14.13;;;;;;;3.48;60.09;94819.91;5056768;28;20515;-79
2022/01/30 10:33:10;;;;;;;18.53;11.47;;;;;;;3.57;59.38;94813.31;5056885;28;20482;-78
2022/01/30 10:35:51;;;;;;;19.77;10.10;;;;;;;3.52;58.97;94817.94;5001951;28;20966;-78
2022/01/30 10:38:23;;;;;;;25.33;9.20;;;;;;;3.48;59.52;94796.56;5036692;28;20513;-79
2022/01/30 10:41:00;;;;;;;21.93;9.37;;;;;;;3.69;58.92;94784.88;5036137;28;20486;-81
2022/01/30 10:43:53;;;;;;;21.10;10.73;;;;;;;3.77;58.21;94774.06;5017850;28;20457;-81
2022/01/30 10:46:21;;;;;;;21.37;11.10;;;;;;;4.02;58.24;94774.22;4956498;29;20541;-79
2022/01/30 10:48:53;;;;;;;37.60;16.10;;;;;;;4.16;58.12;94773.38;4954716;28;20456;-81
2022/01/30 10:51:20;;;;;;;19.73;11.27;;;;;;;4.26;57.77;94761.50;4955454;29;20481;-80
2022/01/30 10:53:49;;;;;;;39.47;17.57;;;;;;;4.43;57.24;94742.25;4954635;29;20834;-80
2022/01/30 10:56:24;;;;;;;77.33;31.80;;;;;;;4.61;57.35;94730.69;4956398;29;20450;-79
2022/01/30 10:59:09;;;;;;;58.93;17.60;;;;;;;4.72;57.16;94734.38;4955274;29;20533;-80
2022/01/30 11:01:37;;;;;;;26.13;14.90;;;;;;;4.77;55.89;94740.94;4955767;29;20489;-80
2022/01/30 11:04:04;;;;;;;14.90;9.87;;;;;;;4.77;55.58;94732.31;4956406;29;20612;-80
2022/01/30 11:06:37;;;;;;;18.47;9.77;;;;;;;4.73;55.43;94739.47;4908340;29;20461;-80
2022/01/30 11:09:08;;;;;;;16.63;10.03;;;;;;;4.81;56.23;94737.22;4955048;28;20453;-81
2022/01/30 11:11:41;;;;;;;16.77;10.43;;;;;;;4.97;56.70;94743.09;4956187;29;20455;-81
2022/01/30 11:14:20;;;;;;;17.93;10.80;;;;;;;5.12;56.64;94735.19;4955980;29;20940;-81
2022/01/30 11:17:02;;;;;;;16.47;10.90;;;;;;;5.19;54.31;94720.84;4957231;29;20461;-80
2022/01/30 11:19:30;;;;;;;18.10;10.97;;;;;;;5.03;55.03;94699.41;4956285;29;20497;-81
2022/01/30 11:22:00;;;;;;;19.23;11.47;;;;;;;4.89;54.62;94695.09;4956238;29;20980;-82
2022/01/30 11:24:28;;;;;;;18.63;10.40;;;;;;;4.78;54.88;94682.81;5016404;28;20915;-80
2022/01/30 11:26:57;;;;;;;20.77;11.97;;;;;;;4.83;55.35;94683.34;5016891;28;20450;-80
2022/01/30 11:29:24;;;;;;;21.80;12.73;;;;;;;4.83;55.27;94685.94;5017366;28;20930;-80
2022/01/30 11:31:51;;;;;;;18.40;11.80;;;;;;;4.87;54.52;94692.59;5019170;28;20497;-80
2022/01/30 11:34:18;;;;;;;22.73;11.30;;;;;;;4.59;54.21;94682.34;5016552;28;20454;-79
2022/01/30 11:36:46;;;;;;;34.63;13.77;;;;;;;4.71;54.97;94685.94;5016472;28;20447;-80
2022/01/30 11:39:15;;;;;;;23.20;13.60;;;;;;;4.79;55.01;94688.84;5016451;28;20770;-80
2022/01/30 11:41:42;;;;;;;25.40;14.23;;;;;;;4.75;55.09;94685.63;5016010;28;20502;-82
2022/01/30 11:44:27;;;;;;;21.60;13.33;;;;;;;4.88;55.57;94694.28;5016227;28;20447;-82
2022/01/30 11:47:22;;;;;;;21.40;13.10;;;;;;;4.98;55.53;94684.13;5022428;28;20802;-80
2022/01/30 11:49:55;;;;;;;22.43;11.17;;;;;;;5.05;54.18;94687.97;5036151;28;20454;-82
2022/01/30 11:52:43;;;;;;;23.30;12.57;;;;;;;5.24;55.73;94682.38;5036178;28;20878;-81
2022/01/30 11:55:49;;;;;;;23.10;11.80;;;;;;;5.32;54.28;94666.25;5035999;28;20446;-81
2022/01/30 11:58:46;;;;;;;29.23;16.00;;;;;;;5.29;54.50;94659.50;5035631;28;21021;-82
2022/01/30 12:01:36;;;;;;;24.53;11.70;;;;;;;5.16;53.14;94656.03;5002098;28;20493;-81
2022/01/30 12:04:15;;;;;;;24.87;12.20;;;;;;;4.97;53.24;94646.06;5035757;28;20485;-81
2022/01/30 12:06:45;;;;;;;21.57;13.60;;;;;;;4.82;55.17;94654.84;5036213;28;20446;-82
2022/01/30 12:09:27;;;;;;;18.70;11.33;;;;;;;4.79;56.31;94642.91;5035751;28;20455;-82
2022/01/30 12:11:55;;;;;;;26.40;12.90;;;;;;;4.90;56.31;94643.00;5035400;28;20812;-82
2022/01/30 12:14:58;;;;;;;19.83;12.87;;;;;;;5.14;56.71;94647.50;5035415;28;20462;-81
2022/01/30 12:18:00;;;;;;;19.20;9.50;;;;;;;5.22;54.60;94640.88;5035063;28;20996;-82